Patricia, South Dakota
Current Conditions -  °F | °C
As of 1:52 PM on Tuesday 25 Nov 2014 (Local Time) from KIEN Reporting Station
Scattered Clouds Scattered Clouds  
Wind Chill: 29°   Ceiling: Unl
Heat Index: 37°   Visibility: 10mi
Dew Point: 30°   Wind: 13mph
Humidity: 76%   Direction: 290°WNW
Pressure: 29.79"   Gusts: NA
Location:  43.2013°N, 101.679°W
Report Text: KIEN 252052Z AUTO 29011KT 10SM SCT095 SCT120 03/M01 A2979 RMK AO2 SLP115 60000 T00281011 55004
Loading
Personal Weather Stations






























Interactive Weather Map New forecast layout! Learn more

10-Day Weather Forecast

Advertisements
Track Severe Weather on mobile